Time;durP1;ratioP1;P1;durP2;ratioP2;P2;SDS_P1;SDS_P2;PMS_P1;PMS_P2;Temp;Humidity;BMP_temperature;BMP_pressure;BME280_temperature;BME280_humidity;BME280_pressure;Samples;Min_cycle;Max_cycle;Signal;HPM_P1;HPM_P2
2022/12/12 00:00:24;;;;;;;27.55;10.75;;;;;;;3.51;79.59;98317.03;4778791;30;20056;-96
2022/12/12 00:02:51;;;;;;;27.30;11.02;;;;;;;3.34;79.71;98260.00;4764748;30;20056;-92
2022/12/12 00:05:18;;;;;;;27.85;11.27;;;;;;;3.80;79.37;98345.00;4734022;30;20078;-91
2022/12/12 00:07:46;;;;;;;33.90;11.23;;;;;;;3.74;79.24;98299.16;4752244;30;20157;-94
2022/12/12 00:10:14;;;;;;;31.05;12.70;;;;;;;3.77;79.34;98308.56;4845076;29;20077;-93
2022/12/12 00:12:42;;;;;;;29.98;11.65;;;;;;;3.70;79.51;98298.13;4857313;29;20072;-95
2022/12/12 00:15:08;;;;;;;32.45;11.02;;;;;;;3.73;79.17;98297.53;4879952;29;20048;-91
2022/12/12 00:17:36;;;;;;;23.83;10.23;;;;;;;4.04;79.35;98355.75;4877286;29;20049;-95
2022/12/12 00:20:04;;;;;;;28.23;10.88;;;;;;;3.78;79.51;98302.06;4832322;29;20051;-95
2022/12/12 00:22:31;;;;;;;28.15;11.43;;;;;;;4.02;79.64;98352.56;4859455;29;20045;-95
2022/12/12 00:24:57;;;;;;;26.67;11.10;;;;;;;3.59;79.91;98283.16;4862057;29;20037;-96
2022/12/12 00:27:24;;;;;;;22.48;10.60;;;;;;;3.76;79.77;98309.66;4872570;29;20316;-91
2022/12/12 00:29:52;;;;;;;32.42;11.43;;;;;;;3.84;79.36;98319.84;4844108;29;20044;-96
2022/12/12 00:32:18;;;;;;;30.00;11.20;;;;;;;3.39;79.68;98259.13;4857371;29;20143;-94
2022/12/12 00:34:46;;;;;;;27.85;9.93;;;;;;;3.50;79.44;98296.50;4857181;29;20404;-91
2022/12/12 00:37:12;;;;;;;27.40;10.80;;;;;;;3.38;79.66;98252.09;4842602;29;20045;-94
2022/12/12 00:39:40;;;;;;;26.20;11.18;;;;;;;3.82;79.45;98315.81;4843061;29;20314;-94
2022/12/12 00:42:06;;;;;;;31.08;10.65;;;;;;;3.51;79.03;98267.63;4856829;29;20049;-91
2022/12/12 00:44:33;;;;;;;23.33;9.88;;;;;;;3.48;79.17;98243.88;4841741;29;20037;-92
2022/12/12 00:46:59;;;;;;;19.07;10.17;;;;;;;3.65;79.24;98271.19;4858768;29;20041;-95
2022/12/12 00:49:25;;;;;;;22.63;10.73;;;;;;;3.82;79.53;98299.59;4843524;29;20325;-92
2022/12/12 00:51:51;;;;;;;26.88;10.88;;;;;;;3.30;79.57;98216.56;4849169;29;20048;-91
2022/12/12 00:54:18;;;;;;;23.85;10.40;;;;;;;3.63;79.30;98278.75;4890220;29;20061;-91
2022/12/12 00:56:47;;;;;;;24.30;10.30;;;;;;;3.62;79.61;98263.66;4894615;29;20021;-92
2022/12/12 00:59:13;;;;;;;25.90;10.43;;;;;;;3.79;79.59;98309.09;4852193;29;20072;-92
2022/12/12 01:01:40;;;;;;;;;;;;;;;4.08;79.75;98348.69;4852411;29;20077;-93
2022/12/12 01:06:32;;;;;;;24.00;10.00;;;;;;;3.28;79.96;98234.97;4910187;29;20450;-93
2022/12/12 01:09:03;;;;;;;30.48;10.35;;;;;;;3.49;79.78;98275.19;4874803;29;20021;-93
2022/12/12 01:11:30;;;;;;;28.98;10.80;;;;;;;3.38;80.29;98246.69;4874754;29;20032;-94
2022/12/12 01:13:58;;;;;;;27.45;9.95;;;;;;;3.61;79.75;98280.16;4874965;29;20032;-95
2022/12/12 01:16:31;;;;;;;32.40;10.52;;;;;;;3.58;79.59;98283.47;4885422;29;20045;-95
2022/12/12 01:21:26;;;;;;;25.00;10.30;;;;;;;3.87;79.73;98311.09;4894688;29;20049;-95
2022/12/12 01:26:24;;;;;;;22.88;9.15;;;;;;;4.07;79.62;98361.38;4889385;29;20045;-92
2022/12/12 01:28:51;;;;;;;17.42;8.52;;;;;;;3.56;79.74;98274.84;4855196;29;20037;-94
2022/12/12 01:31:17;;;;;;;22.63;9.63;;;;;;;3.27;79.85;98237.94;4856099;29;20064;-96
2022/12/12 01:33:45;;;;;;;23.58;10.70;;;;;;;4.00;79.87;98352.81;4855595;29;20165;-92
2022/12/12 01:36:16;;;;;;;23.73;9.38;;;;;;;4.06;79.98;98359.78;4844675;29;20049;-96
2022/12/12 01:39:04;;;;;;;18.25;8.85;;;;;;;4.05;79.92;98347.34;4861604;29;20041;-94
2022/12/12 01:41:31;;;;;;;16.60;6.88;;;;;;;3.26;80.10;98241.75;4818921;29;20114;-96
2022/12/12 01:44:01;;;;;;;18.30;9.00;;;;;;;3.36;81.48;98259.72;4806954;29;20049;-95
2022/12/12 01:46:35;;;;;;;18.13;8.10;;;;;;;3.68;80.16;98318.44;4811897;29;20144;-96
2022/12/12 01:49:24;;;;;;;20.42;8.65;;;;;;;3.26;80.23;98241.75;4837710;29;20045;-92
2022/12/12 01:51:56;;;;;;;19.27;8.57;;;;;;;4.03;79.91;98346.84;4852512;29;20113;-95
2022/12/12 01:54:28;;;;;;;22.83;9.15;;;;;;;3.38;80.16;98247.53;4835529;29;20042;-93
2022/12/12 01:56:56;;;;;;;22.40;8.85;;;;;;;3.56;79.86;98277.53;4821212;29;20100;-92
2022/12/12 01:59:24;;;;;;;23.95;9.13;;;;;;;3.78;80.16;98315.59;4833262;29;20133;-93
2022/12/12 02:01:53;;;;;;;18.25;8.23;;;;;;;3.78;79.92;98309.38;4818285;29;20149;-95
2022/12/12 02:04:21;;;;;;;19.88;8.25;;;;;;;3.80;79.77;98307.97;4820238;29;20070;-91
2022/12/12 02:06:50;;;;;;;23.10;9.00;;;;;;;3.73;80.11;98310.25;4824372;29;20529;-92
2022/12/12 02:09:19;;;;;;;19.85;8.07;;;;;;;3.72;80.12;98308.66;4824274;29;20037;-93
2022/12/12 02:11:52;;;;;;;17.80;8.57;;;;;;;3.68;80.24;98291.41;4843128;29;20151;-91
2022/12/12 02:14:34;;;;;;;19.20;7.82;;;;;;;3.74;80.06;98309.97;4846445;29;20061;-94
2022/12/12 02:17:33;;;;;;;21.00;8.48;;;;;;;3.68;80.13;98292.22;4843060;29;20037;-92
2022/12/12 02:20:36;;;;;;;19.98;8.20;;;;;;;3.96;80.26;98355.31;4864106;29;20041;-92
2022/12/12 02:23:26;;;;;;;20.75;8.02;;;;;;;3.98;80.10;98350.44;4859319;29;20113;-95
2022/12/12 02:26:15;;;;;;;23.45;8.50;;;;;;;4.00;80.25;98355.53;4862810;29;20052;-91
2022/12/12 02:28:54;;;;;;;23.30;7.63;;;;;;;4.00;80.25;98350.91;4860295;29;20092;-92
2022/12/12 02:31:51;;;;;;;20.25;8.55;;;;;;;4.02;80.45;98355.25;4851379;29;20056;-94
2022/12/12 02:34:36;;;;;;;18.35;8.20;;;;;;;3.69;79.77;98287.63;4868378;29;20041;-90
2022/12/12 02:37:08;;;;;;;;;;;;;;;4.00;79.85;98360.94;4899240;29;20045;-93
2022/12/12 02:39:34;;;;;;;18.50;7.47;;;;;;;4.05;80.54;98351.97;4845697;29;19926;-92
2022/12/12 02:42:43;;;;;;;18.48;7.65;;;;;;;3.98;80.29;98353.13;4851831;29;20056;-96
2022/12/12 02:45:23;;;;;;;17.13;7.25;;;;;;;3.34;80.61;98284.31;4856580;29;20069;-92
2022/12/12 02:47:57;;;;;;;15.82;7.45;;;;;;;3.69;81.12;98315.44;4854195;29;20057;-95
2022/12/12 02:50:27;;;;;;;17.27;7.32;;;;;;;3.81;80.19;98322.28;4820881;29;20056;-92
2022/12/12 02:52:53;;;;;;;17.50;8.02;;;;;;;3.85;80.20;98328.75;4816075;29;20083;-92
2022/12/12 02:55:19;;;;;;;15.35;7.65;;;;;;;3.58;80.31;98296.97;4819384;29;20091;-94
2022/12/12 02:57:48;;;;;;;21.38;7.78;;;;;;;4.10;80.39;98365.41;4839674;29;20038;-92
2022/12/12 03:00:18;;;;;;;12.75;6.53;;;;;;;3.46;80.51;98265.78;4854265;29;20065;-96
2022/12/12 03:08:58;;;;;;;12.20;6.22;;;;;;;4.08;80.24;98364.91;4840915;29;20098;-91
2022/12/12 03:11:37;;;;;;;14.77;6.53;;;;;;;3.59;80.63;98301.28;4813061;29;20065;-92
2022/12/12 03:14:24;;;;;;;13.35;6.40;;;;;;;3.42;80.64;98269.38;4845587;29;20140;-92
2022/12/12 03:17:19;;;;;;;13.27;6.85;;;;;;;4.02;80.41;98363.38;4824864;29;20512;-92
2022/12/12 03:19:57;;;;;;;12.50;6.35;;;;;;;3.61;80.25;98299.06;4842801;29;20073;-92
2022/12/12 03:22:24;;;;;;;13.25;6.35;;;;;;;4.13;80.31;98378.31;4872670;29;20056;-92
2022/12/12 03:25:09;;;;;;;14.60;6.60;;;;;;;4.13;80.55;98375.63;4855254;29;20045;-93
2022/12/12 03:28:08;;;;;;;13.55;7.10;;;;;;;4.17;79.97;98380.16;4874782;29;20029;-94
2022/12/12 03:30:41;;;;;;;11.45;5.90;;;;;;;4.13;80.16;98378.31;4848173;29;20046;-94
2022/12/12 03:33:17;;;;;;;13.70;7.05;;;;;;;4.16;80.24;98373.13;4859724;29;20469;-94
2022/12/12 03:36:14;;;;;;;11.52;6.28;;;;;;;3.72;80.51;98317.56;4858541;29;20060;-92
2022/12/12 03:38:46;;;;;;;17.25;7.10;;;;;;;3.98;80.25;98347.72;4839796;29;20054;-92
2022/12/12 03:41:19;;;;;;;11.75;6.03;;;;;;;3.70;79.94;98303.53;4876235;29;20049;-92
2022/12/12 03:44:08;;;;;;;15.35;6.53;;;;;;;4.26;79.98;98371.38;4875032;29;20041;-92
2022/12/12 03:46:47;;;;;;;14.63;7.32;;;;;;;4.00;79.94;98329.28;4876566;29;20049;-92
2022/12/12 03:49:31;;;;;;;15.75;6.88;;;;;;;3.60;79.91;98262.34;4878562;29;20033;-91
2022/12/12 03:52:05;;;;;;;13.13;6.10;;;;;;;3.75;79.60;98298.06;4859309;29;20045;-92
2022/12/12 03:54:55;;;;;;;17.25;7.57;;;;;;;3.79;79.87;98303.69;4872716;29;20584;-94
2022/12/12 03:57:30;;;;;;;14.90;7.18;;;;;;;4.01;79.64;98343.63;4860121;29;20128;-93
2022/12/12 04:00:18;;;;;;;14.18;6.47;;;;;;;4.03;79.64;98337.91;4847401;29;20049;-92
2022/12/12 04:03:23;;;;;;;12.85;7.07;;;;;;;3.90;79.82;98328.66;4851253;29;20511;-92
2022/12/12 04:06:26;;;;;;;16.00;7.30;;;;;;;3.83;79.87;98326.31;4879025;29;20059;-90
2022/12/12 04:15:11;;;;;;;15.13;7.25;;;;;;;4.21;80.34;98366.88;4894625;29;20037;-93
2022/12/12 04:18:13;;;;;;;10.75;6.15;;;;;;;4.16;80.40;98359.63;4899283;29;20056;-92
2022/12/12 04:23:59;;;;;;;12.18;6.65;;;;;;;3.77;80.23;98300.44;4898668;29;20103;-91
2022/12/12 04:26:54;;;;;;;14.52;6.95;;;;;;;3.86;80.44;98312.22;4860298;29;20049;-92
2022/12/12 04:29:42;;;;;;;15.88;7.05;;;;;;;4.26;80.09;98361.34;4871887;29;20029;-91
2022/12/12 04:32:24;;;;;;;10.68;6.25;;;;;;;4.24;79.76;98367.06;4882023;29;20049;-93
2022/12/12 04:35:21;;;;;;;14.77;6.95;;;;;;;3.90;80.12;98326.75;4883772;29;20052;-92
2022/12/12 04:38:22;;;;;;;13.85;8.00;;;;;;;3.76;80.18;98307.75;4867112;29;20047;-91
2022/12/12 04:40:59;;;;;;;14.30;6.50;;;;;;;3.78;80.13;98315.59;4825660;29;20050;-93
2022/12/12 04:43:40;;;;;;;12.30;7.00;;;;;;;3.40;80.38;98261.53;4823286;29;20022;-94
2022/12/12 04:46:36;;;;;;;16.25;8.00;;;;;;;3.59;80.35;98274.25;4842960;29;20129;-94
2022/12/12 04:49:12;;;;;;;13.25;7.05;;;;;;;3.78;80.33;98309.38;4824914;29;20049;-93
2022/12/12 04:51:46;;;;;;;18.25;6.63;;;;;;;4.12;82.46;98326.16;4838981;29;20038;-95
2022/12/12 04:54:51;;;;;;;14.60;6.97;;;;;;;4.24;80.85;98372.47;4801618;29;20050;-93
2022/12/12 04:57:28;;;;;;;15.40;7.40;;;;;;;4.19;80.16;98353.63;4824196;29;20045;-94
2022/12/12 04:59:56;;;;;;;13.80;6.60;;;;;;;4.09;80.14;98331.34;4831891;29;20042;-94
2022/12/12 05:02:33;;;;;;;13.32;7.22;;;;;;;3.71;80.12;98263.81;4833465;29;20107;-94
2022/12/12 05:05:09;;;;;;;13.30;6.90;;;;;;;4.22;79.76;98341.41;4815970;29;20049;-93
2022/12/12 05:07:42;;;;;;;14.93;7.30;;;;;;;4.17;79.64;98326.09;4845019;29;20050;-93
2022/12/12 05:10:15;;;;;;;13.32;6.97;;;;;;;3.69;79.84;98257.88;4846788;29;20676;-93
2022/12/12 05:12:46;;;;;;;14.65;7.30;;;;;;;3.75;79.67;98264.81;4829622;29;20057;-92
2022/12/12 05:15:15;;;;;;;13.07;7.40;;;;;;;4.40;79.70;98372.22;4835533;29;20127;-93
2022/12/12 05:17:57;;;;;;;12.98;7.78;;;;;;;4.14;79.57;98339.34;4828387;29;20037;-92
2022/12/12 05:20:24;;;;;;;13.82;7.15;;;;;;;4.45;79.50;98381.06;4835663;29;20520;-93
2022/12/12 05:22:50;;;;;;;14.80;7.60;;;;;;;3.63;79.60;98267.16;4830011;29;20061;-93
2022/12/12 05:25:16;;;;;;;13.18;7.00;;;;;;;4.38;80.16;98386.06;4846495;29;20140;-92
2022/12/12 05:27:45;;;;;;;13.93;7.57;;;;;;;3.74;80.14;98279.41;4847723;29;20048;-93
2022/12/12 05:30:12;;;;;;;10.82;6.35;;;;;;;4.15;79.68;98346.41;4832560;29;20141;-94
2022/12/12 05:32:40;;;;;;;11.20;6.85;;;;;;;3.96;79.52;98322.06;4825553;29;20046;-92
2022/12/12 05:35:07;;;;;;;11.55;7.00;;;;;;;4.34;79.69;98379.63;4819728;29;20046;-93
2022/12/12 05:37:36;;;;;;;11.45;6.50;;;;;;;4.14;79.41;98355.59;4840707;29;20033;-93
2022/12/12 05:40:08;;;;;;;14.60;7.60;;;;;;;4.38;79.81;98388.75;4848339;29;20081;-93
2022/12/12 05:42:34;;;;;;;16.15;6.78;;;;;;;3.74;79.71;98279.41;4847721;29;20029;-92
2022/12/12 05:45:03;;;;;;;12.15;6.85;;;;;;;4.05;79.20;98314.91;4847684;29;20468;-91
2022/12/12 05:47:38;;;;;;;;;;;;;;;4.57;78.82;98379.78;4837738;29;20053;-95
2022/12/12 05:50:09;;;;;;;12.63;6.60;;;;;;;3.87;78.96;98281.38;4863031;29;19920;-94
2022/12/12 05:52:35;;;;;;;11.88;6.05;;;;;;;4.57;79.03;98387.91;4861558;29;20092;-94
2022/12/12 05:55:06;;;;;;;11.82;5.80;;;;;;;4.06;79.08;98310.28;4874273;29;20518;-94
2022/12/12 05:57:34;;;;;;;11.20;6.25;;;;;;;3.81;78.51;98281.75;4875627;29;20504;-93
2022/12/12 06:00:04;;;;;;;10.57;6.68;;;;;;;3.88;78.89;98282.19;4858460;29;20049;-94
2022/12/12 06:02:34;;;;;;;9.68;5.85;;;;;;;4.14;78.76;98332.06;4843614;29;20018;-93
2022/12/12 06:05:03;;;;;;;12.98;6.88;;;;;;;4.03;78.79;98327.09;4823439;29;20128;-92
2022/12/12 06:07:35;;;;;;;13.70;6.50;;;;;;;4.35;78.98;98389.34;4846367;29;20061;-94
2022/12/12 06:10:05;;;;;;;15.20;8.30;;;;;;;3.74;79.20;98293.75;4848686;29;20045;-93
2022/12/12 06:12:42;;;;;;;16.27;7.75;;;;;;;4.41;79.41;98388.19;4870118;29;20054;-93
2022/12/12 06:15:41;;;;;;;13.23;7.93;;;;;;;3.76;79.55;98296.94;4895488;29;20053;-93
2022/12/12 06:18:11;;;;;;;13.18;7.45;;;;;;;4.17;79.91;98376.63;4863693;29;20045;-92
2022/12/12 06:24:51;;;;;;;11.55;6.53;;;;;;;3.65;79.63;98295.50;4825858;29;20058;-95
2022/12/12 06:31:54;;;;;;;18.20;9.50;;;;;;;3.81;79.76;98293.38;4821983;29;20065;-96
2022/12/12 06:34:31;;;;;;;11.23;6.63;;;;;;;3.66;79.29;98275.47;4777825;29;20043;-93
2022/12/12 06:37:00;;;;;;;12.00;6.82;;;;;;;4.37;79.33;98387.16;4812470;29;20102;-91
2022/12/12 06:42:41;;;;;;;12.10;6.97;;;;;;;3.71;79.82;98298.94;5717408;23;20032;-94
2022/12/12 06:45:31;;;;;;;16.67;7.40;;;;;;;4.05;79.54;98339.25;4913205;29;20056;-93
2022/12/12 06:48:40;;;;;;;11.32;6.65;;;;;;;4.14;79.29;98369.09;4908135;29;20051;-94
2022/12/12 06:52:07;;;;;;;10.50;6.50;;;;;;;4.41;79.33;98403.63;5304113;23;20049;-93
2022/12/12 07:01:02;;;;;;;15.73;7.00;;;;;;;4.36;80.10;98407.19;601427;23;20302;-93
2022/12/12 07:09:51;;;;;;;;;;;;;;;;;;;;;
2022/12/12 07:12:39;;;;;;;12.15;6.40;;;;;;;3.95;79.46;98351.00;4847084;29;20125;-96
2022/12/12 07:15:06;;;;;;;15.95;7.65;;;;;;;4.01;79.38;98362.56;4848994;29;20048;-96
2022/12/12 07:27:30;;;;;;;14.20;7.90;;;;;;;4.48;79.69;98423.78;1073808;23;22192;-95
2022/12/12 07:30:47;;;;;;;14.27;8.13;;;;;;;4.29;79.54;98395.13;4879474;29;20061;-95
2022/12/12 07:34:14;;;;;;;20.35;8.52;;;;;;;4.48;79.87;98425.69;4865742;29;20065;-95
2022/12/12 07:37:09;;;;;;;13.25;8.10;;;;;;;4.23;79.67;98402.53;4843458;29;20110;-92
2022/12/12 07:39:36;;;;;;;14.98;7.70;;;;;;;3.88;79.84;98328.97;4807840;29;20068;-93
2022/12/12 07:42:04;;;;;;;17.63;9.30;;;;;;;4.25;80.33;98394.94;4810190;29;20135;-94
2022/12/12 07:44:34;;;;;;;19.45;9.20;;;;;;;4.23;79.80;98392.50;4823877;29;20022;-93
2022/12/12 07:47:02;;;;;;;19.08;9.65;;;;;;;4.13;79.53;98362.09;4809157;29;20045;-93
2022/12/12 07:49:28;;;;;;;17.52;9.57;;;;;;;4.16;79.20;98366.94;4812533;29;20033;-92
2022/12/12 07:51:55;;;;;;;18.92;10.25;;;;;;;4.08;79.10;98332.44;4840933;29;20144;-93
2022/12/12 07:54:21;;;;;;;20.17;9.60;;;;;;;4.65;78.61;98427.84;4823966;29;20026;-93
2022/12/12 07:56:58;;;;;;;27.90;11.13;;;;;;;4.23;78.49;98349.22;4823756;29;20113;-94
2022/12/12 07:59:55;;;;;;;24.90;10.57;;;;;;;4.60;78.84;98408.97;4823614;29;20287;-96
2022/12/12 08:02:21;;;;;;;26.05;10.73;;;;;;;4.63;78.73;98414.59;4850124;29;20134;-90
2022/12/12 08:04:52;;;;;;;19.35;10.30;;;;;;;4.33;78.98;98375.31;4844168;29;20034;-92
2022/12/12 08:09:56;;;;;;;25.92;10.63;;;;;;;3.90;79.66;98342.97;4903626;29;20052;-95
2022/12/12 08:12:23;;;;;;;19.93;10.17;;;;;;;4.18;79.95;98383.69;4895141;29;20053;-93
2022/12/12 08:14:58;;;;;;;18.92;10.43;;;;;;;3.77;79.63;98305.84;4910113;29;20127;-91
2022/12/12 08:17:30;;;;;;;28.10;10.85;;;;;;;4.45;79.34;98410.84;4880778;29;20554;-91
2022/12/12 08:19:58;;;;;;;20.25;9.45;;;;;;;4.44;79.80;98403.81;4887790;29;20048;-93
2022/12/12 08:22:26;;;;;;;23.45;9.13;;;;;;;4.13;79.75;98362.09;4865714;29;20056;-93
2022/12/12 08:24:52;;;;;;;17.60;8.73;;;;;;;4.11;79.89;98358.91;4894084;29;20518;-92
2022/12/12 08:27:22;;;;;;;16.58;9.02;;;;;;;4.04;80.27;98361.97;4866455;29;20395;-93
2022/12/12 08:29:51;;;;;;;21.48;10.15;;;;;;;4.42;79.98;98407.91;4865498;29;20107;-93
2022/12/12 08:35:18;;;;;;;15.40;8.32;;;;;;;4.53;78.96;98412.06;4905197;29;20201;-91
2022/12/12 08:37:48;;;;;;;13.65;7.85;;;;;;;4.38;79.00;98406.91;4857047;29;20038;-90
2022/12/12 08:40:15;;;;;;;15.57;7.47;;;;;;;4.46;79.36;98423.25;4843211;29;20125;-92
2022/12/12 08:42:42;;;;;;;12.30;7.40;;;;;;;3.80;79.32;98335.00;4842567;29;20053;-90
2022/12/12 08:45:09;;;;;;;13.32;7.05;;;;;;;4.19;79.27;98399.59;4858424;29;20084;-93
2022/12/12 08:47:37;;;;;;;13.68;7.22;;;;;;;4.32;79.41;98427.81;4857830;29;20045;-92
2022/12/12 08:50:05;;;;;;;13.57;6.90;;;;;;;4.28;79.68;98424.09;4843519;29;20049;-92
2022/12/12 08:52:34;;;;;;;12.50;6.75;;;;;;;3.91;79.44;98352.69;4841514;29;20064;-92
2022/12/12 08:55:00;;;;;;;13.68;7.07;;;;;;;3.98;79.47;98352.34;4857835;29;20041;-92
2022/12/12 08:57:27;;;;;;;9.15;6.35;;;;;;;3.63;79.06;98315.81;4828237;29;20054;-93
2022/12/12 08:59:53;;;;;;;12.70;7.05;;;;;;;4.35;79.36;98426.44;4846987;29;20049;-94
2022/12/12 09:02:40;;;;;;;19.02;8.13;;;;;;;4.43;79.73;98428.47;4865359;29;20034;-93
2022/12/12 09:05:19;;;;;;;;;;;;;;;4.43;79.34;98426.56;4871945;29;20053;-92
2022/12/12 09:07:50;;;;;;;21.17;7.70;;;;;;;3.96;78.88;98349.91;4861190;29;19960;-91
2022/12/12 09:10:24;;;;;;;15.40;8.02;;;;;;;4.38;78.79;98415.81;4846057;29;20064;-92
2022/12/12 09:12:51;;;;;;;16.30;8.57;;;;;;;4.27;78.89;98414.34;4829262;29;20144;-91
2022/12/12 09:15:21;;;;;;;18.33;9.70;;;;;;;3.75;79.45;98326.97;4841196;29;20097;-93
2022/12/12 09:17:49;;;;;;;15.40;8.05;;;;;;;4.03;79.47;98375.78;4825361;29;20049;-92
2022/12/12 09:20:17;;;;;;;16.80;9.20;;;;;;;4.17;79.12;98392.88;4841831;29;20048;-91
2022/12/12 09:22:55;;;;;;;18.50;9.60;;;;;;;4.22;79.10;98409.84;4880261;29;20048;-91
2022/12/12 09:25:23;;;;;;;16.90;8.52;;;;;;;4.36;79.02;98428.03;4910760;29;20091;-93
2022/12/12 09:27:50;;;;;;;16.10;8.32;;;;;;;4.16;78.82;98391.28;4875995;29;20109;-91
2022/12/12 09:30:17;;;;;;;22.05;11.52;;;;;;;4.40;78.97;98429.88;4880618;29;20041;-91
2022/12/12 09:33:04;;;;;;;18.15;10.18;;;;;;;4.31;78.84;98403.78;4862042;29;20076;-92
2022/12/12 09:35:32;;;;;;;17.13;9.27;;;;;;;4.17;78.60;98376.63;4881981;29;20052;-89
2022/12/12 09:38:00;;;;;;;23.50;10.75;;;;;;;4.31;78.52;98384.84;4882899;29;20048;-91
2022/12/12 09:40:43;;;;;;;22.00;9.45;;;;;;;4.07;79.00;98358.66;4846232;29;20045;-90
2022/12/12 09:43:59;;;;;;;18.05;10.00;;;;;;;4.53;79.09;98433.72;4876848;23;20049;31
2022/12/12 09:46:36;;;;;;;23.08;10.25;;;;;;;4.44;78.97;98425.47;4838603;29;20053;-92
2022/12/12 09:49:18;;;;;;;19.55;8.23;;;;;;;4.27;79.59;98416.25;4841252;29;20056;-91
2022/12/12 09:51:52;;;;;;;19.00;11.18;;;;;;;4.21;79.82;98389.31;4825411;29;20521;-92
2022/12/12 09:54:21;;;;;;;18.58;11.18;;;;;;;4.42;79.57;98416.84;4824529;29;20070;-92
2022/12/12 09:56:59;;;;;;;26.63;11.68;;;;;;;4.57;79.24;98433.91;4840121;29;20068;-91
2022/12/12 09:59:39;;;;;;;;;;;;;;;4.56;79.22;98438.53;4826083;29;20136;-91
2022/12/12 10:02:45;;;;;;;26.50;12.10;;;;;;;4.48;79.65;98423.78;4824663;29;19924;-93
2022/12/12 10:05:45;;;;;;;24.42;12.35;;;;;;;4.50;79.33;98430.78;4827491;29;20038;-91
2022/12/12 10:08:32;;;;;;;22.83;12.18;;;;;;;4.15;79.27;98354.50;4760499;29;20047;-90
2022/12/12 10:13:35;;;;;;;24.58;12.50;;;;;;;4.44;79.30;98425.47;4779454;29;20085;-91
2022/12/12 10:16:09;;;;;;;31.45;13.75;;;;;;;4.03;79.09;98349.53;4807994;29;20062;-91
2022/12/12 10:18:43;;;;;;;31.73;13.45;;;;;;;3.99;79.44;98351.22;4763191;30;20051;-90
2022/12/12 10:21:20;;;;;;;29.35;13.85;;;;;;;4.38;79.46;98415.03;4787818;29;20061;-91
2022/12/12 10:24:17;;;;;;;25.88;13.15;;;;;;;4.61;79.28;98429.56;4773933;30;20051;-93
2022/12/12 10:26:53;;;;;;;30.45;13.70;;;;;;;4.23;79.25;98397.09;4764739;30;20056;-92
2022/12/12 10:29:22;;;;;;;24.73;13.38;;;;;;;4.17;79.30;98358.53;4793003;29;20111;-93
2022/12/12 10:32:27;;;;;;;30.80;14.10;;;;;;;4.57;79.14;98423.94;4774412;30;20166;-95
2022/12/12 10:35:19;;;;;;;36.55;14.55;;;;;;;4.16;79.19;98361.53;4771360;30;20086;-91
2022/12/12 10:38:27;;;;;;;25.57;13.10;;;;;;;4.57;78.85;98425.81;4788502;30;20062;-91
2022/12/12 10:41:09;;;;;;;26.50;13.43;;;;;;;4.58;79.30;98416.59;4772307;30;20036;-94
2022/12/12 10:44:04;;;;;;;30.80;14.18;;;;;;;4.63;79.04;98417.31;4787485;29;20023;-93
2022/12/12 10:47:04;;;;;;;32.08;14.07;;;;;;;4.45;78.61;98402.72;4873592;29;20042;-94
2022/12/12 10:49:36;;;;;;;28.05;13.95;;;;;;;4.14;78.68;98356.41;5047992;23;20041;-94
2022/12/12 10:52:24;;;;;;;31.40;15.07;;;;;;;4.04;78.86;98344.94;4863082;29;20061;-91
2022/12/12 10:54:57;;;;;;;30.20;14.10;;;;;;;4.31;78.68;98380.22;4859551;29;20053;-92
2022/12/12 10:57:26;;;;;;;30.05;14.48;;;;;;;4.16;78.77;98364.22;4847853;29;20053;-96
2022/12/12 10:59:57;;;;;;;27.58;14.88;;;;;;;4.51;79.31;98419.69;4853262;29;20049;-96
2022/12/12 11:02:36;;;;;;;27.08;14.30;;;;;;;4.60;78.62;98426.03;4844974;29;20054;-94
2022/12/12 11:05:20;;;;;;;29.67;13.73;;;;;;;4.12;78.41;98357.81;4845359;29;20045;-92
2022/12/12 11:08:10;;;;;;;34.97;14.48;;;;;;;4.56;77.90;98406.06;4844840;29;20116;-95
2022/12/12 11:10:37;;;;;;;31.25;14.45;;;;;;;4.46;77.84;98393.50;4857938;29;20045;-92
2022/12/12 11:13:15;;;;;;;29.30;14.10;;;;;;;4.48;77.58;98387.81;4837355;29;20120;-93
2022/12/12 11:15:51;;;;;;;29.02;14.23;;;;;;;4.63;77.91;98411.88;4841939;29;20058;-94
2022/12/12 11:18:21;;;;;;;29.38;14.43;;;;;;;4.01;78.15;98330.13;4842616;29;20504;-92
2022/12/12 11:21:05;;;;;;;34.72;14.93;;;;;;;4.67;78.18;98418.34;4827157;29;20045;-95
2022/12/12 11:23:38;;;;;;;30.52;14.02;;;;;;;4.85;77.78;98418.59;4826219;29;20053;-93
2022/12/12 11:26:15;;;;;;;29.58;15.05;;;;;;;4.64;77.30;98401.91;4841727;29;20041;-92
2022/12/12 11:28:45;;;;;;;23.95;13.07;;;;;;;4.23;77.21;98324.06;4845197;29;20057;-96
2022/12/12 11:31:16;;;;;;;25.38;13.10;;;;;;;4.38;77.06;98350.88;4892992;29;20048;-94
2022/12/12 11:33:51;;;;;;;26.27;13.80;;;;;;;4.41;76.46;98355.72;4858656;29;20045;-94
2022/12/12 11:36:24;;;;;;;33.58;14.15;;;;;;;4.79;77.22;98423.28;4837144;29;20053;-93
2022/12/12 11:38:55;;;;;;;30.55;13.60;;;;;;;4.50;76.85;98353.13;4847793;29;20037;-91
2022/12/12 11:41:51;;;;;;;34.42;14.02;;;;;;;4.41;76.62;98344.09;4886881;29;20046;-94
2022/12/12 11:44:25;;;;;;;24.00;12.55;;;;;;;4.66;76.50;98361.78;4853846;29;20061;-92
2022/12/12 11:46:52;;;;;;;23.98;11.93;;;;;;;4.36;76.39;98309.78;4836376;29;20125;-93
2022/12/12 11:49:19;;;;;;;26.75;12.43;;;;;;;4.45;75.74;98326.16;4831430;29;20034;-92
2022/12/12 11:51:47;;;;;;;25.42;11.77;;;;;;;4.52;76.24;98345.50;4857788;29;20046;-93
2022/12/12 11:54:32;;;;;;;24.45;13.38;;;;;;;4.63;75.79;98351.53;4874720;29;20048;-93
2022/12/12 11:57:27;;;;;;;23.08;11.05;;;;;;;4.39;76.33;98347.06;4844485;29;20073;-94
2022/12/12 12:00:20;;;;;;;21.77;10.85;;;;;;;4.30;76.05;98331.81;4844812;29;20022;-94
2022/12/12 12:03:35;;;;;;;18.45;10.00;;;;;;;4.78;76.02;98383.78;4849659;29;20096;-95
2022/12/12 12:10:34;;;;;;;19.33;9.80;;;;;;;4.00;76.86;98321.19;5080128;23;20038;-94
2022/12/12 12:13:53;;;;;;;21.92;10.15;;;;;;;4.69;76.94;98409.91;4882478;29;20057;-95
2022/12/12 12:17:32;;;;;;;19.30;9.73;;;;;;;4.55;76.28;98349.53;4883095;29;20081;-94
2022/12/12 12:20:08;;;;;;;19.30;10.07;;;;;;;4.89;75.79;98397.94;4897289;29;20060;-95
2022/12/12 12:22:45;;;;;;;17.23;9.52;;;;;;;4.88;75.82;98399.84;4883970;29;20132;-93
2022/12/12 12:26:36;;;;;;;15.02;8.63;;;;;;;4.63;75.52;98362.38;4895524;29;20056;-94
2022/12/12 12:32:30;;;;;;;15.70;8.48;;;;;;;5.03;75.19;98401.44;4895487;29;20041;-95
2022/12/12 12:35:26;;;;;;;15.73;8.32;;;;;;;4.45;75.37;98337.78;4843229;29;20046;-94
2022/12/12 12:38:42;;;;;;;14.52;8.80;;;;;;;4.93;75.00;98402.47;4815894;29;20029;-94
2022/12/12 12:41:44;;;;;;;14.48;8.23;;;;;;;4.43;74.95;98310.19;4830186;29;20049;-93
2022/12/12 12:45:23;;;;;;;18.67;8.90;;;;;;;4.93;75.03;98394.34;4845217;29;20053;-93
2022/12/12 12:48:14;;;;;;;12.68;7.07;;;;;;;4.24;74.92;98295.94;4844920;29;20549;-94
2022/12/12 13:12:02;;;;;;;10.13;5.60;;;;;;;4.15;75.94;98341.00;4920544;29;20056;-94
2022/12/12 13:15:09;;;;;;;11.40;5.77;;;;;;;4.47;75.65;98380.78;4904209;29;20053;-95
2022/12/12 13:27:44;;;;;;;12.48;5.53;;;;;;;4.70;74.55;98385.28;4925459;29;20072;-93
2022/12/12 13:46:38;;;;;;;7.47;4.22;;;;;;;4.64;75.20;98378.31;935886;23;20298;-93
2022/12/12 13:49:37;;;;;;;7.40;4.15;;;;;;;4.68;74.56;98383.94;4944367;23;20055;-94
2022/12/12 13:53:40;;;;;;;10.63;4.20;;;;;;;4.67;74.48;98387.78;4952775;29;20066;-94
2022/12/12 13:59:53;;;;;;;8.57;4.35;;;;;;;4.56;75.27;98387.13;4928473;29;20104;-93
2022/12/12 14:02:57;;;;;;;7.10;4.35;;;;;;;4.35;75.73;98375.03;4909030;29;20042;-93
2022/12/12 14:05:56;;;;;;;7.05;4.10;;;;;;;4.47;76.22;98445.75;4901968;29;20046;-94
2022/12/12 14:08:51;;;;;;;5.38;3.50;;;;;;;4.14;75.72;98417.78;4884653;29;20064;-92
2022/12/12 14:11:51;;;;;;;5.78;3.92;;;;;;;4.26;75.64;98431.69;4899836;29;20039;-96
2022/12/12 14:14:38;;;;;;;6.97;4.13;;;;;;;4.11;75.85;98373.22;4898596;29;20040;-92
2022/12/12 14:17:05;;;;;;;7.53;4.45;;;;;;;4.17;75.39;98403.69;4895461;29;20072;-93
2022/12/12 14:19:34;;;;;;;6.90;4.50;;;;;;;4.44;75.08;98416.56;4899243;29;20076;-92
2022/12/12 14:22:04;;;;;;;8.23;4.57;;;;;;;4.35;75.44;98411.00;4880493;29;20040;-93
2022/12/12 14:24:32;;;;;;;9.43;5.20;;;;;;;4.70;75.13;98435.88;4897572;29;20052;-93
2022/12/12 14:27:08;;;;;;;;;;;;;;;4.68;74.61;98433.47;4899272;29;20040;-93
2022/12/12 14:29:40;;;;;;;7.82;4.28;;;;;;;4.45;74.09;98369.44;4893425;29;20134;-93